sensor_id;sensor_type;location;lat;lon;timestamp;P1;durP1;ratioP1;P2;durP2;ratioP2
55603;SDS011;41468;48.838;9.330;2023-02-23T00:01:52;17.63;;;11.20;;
55603;SDS011;41468;48.838;9.330;2023-02-23T00:04:24;18.73;;;11.43;;
55603;SDS011;41468;48.838;9.330;2023-02-23T00:06:51;17.60;;;11.27;;
55603;SDS011;41468;48.838;9.330;2023-02-23T00:09:19;15.73;;;11.50;;
55603;SDS011;41468;48.838;9.330;2023-02-23T00:11:54;18.37;;;11.63;;
55603;SDS011;41468;48.838;9.330;2023-02-23T00:14:26;17.93;;;11.23;;
55603;SDS011;41468;48.838;9.330;2023-02-23T00:16:54;18.47;;;11.53;;
55603;SDS011;41468;48.838;9.330;2023-02-23T00:19:21;17.20;;;11.47;;
55603;SDS011;41468;48.838;9.330;2023-02-23T00:21:50;18.50;;;11.73;;
55603;SDS011;41468;48.838;9.330;2023-02-23T00:24:18;15.33;;;11.83;;
55603;SDS011;41468;48.838;9.330;2023-02-23T00:26:45;17.27;;;11.73;;
55603;SDS011;41468;48.838;9.330;2023-02-23T00:29:14;19.80;;;11.60;;
55603;SDS011;41468;48.838;9.330;2023-02-23T00:31:43;14.33;;;10.63;;
55603;SDS011;41468;48.838;9.330;2023-02-23T00:34:11;17.40;;;11.97;;
55603;SDS011;41468;48.838;9.330;2023-02-23T00:36:41;15.67;;;10.97;;
55603;SDS011;41468;48.838;9.330;2023-02-23T00:39:09;14.73;;;11.47;;
55603;SDS011;41468;48.838;9.330;2023-02-23T00:41:47;15.10;;;11.57;;
55603;SDS011;41468;48.838;9.330;2023-02-23T00:44:14;14.30;;;11.63;;
55603;SDS011;41468;48.838;9.330;2023-02-23T00:46:42;16.47;;;12.03;;
55603;SDS011;41468;48.838;9.330;2023-02-23T00:49:11;14.07;;;11.67;;
55603;SDS011;41468;48.838;9.330;2023-02-23T00:51:38;17.13;;;11.77;;
55603;SDS011;41468;48.838;9.330;2023-02-23T00:54:05;19.33;;;11.40;;
55603;SDS011;41468;48.838;9.330;2023-02-23T00:56:33;17.37;;;11.87;;
55603;SDS011;41468;48.838;9.330;2023-02-23T00:59:00;17.07;;;11.60;;
55603;SDS011;41468;48.838;9.330;2023-02-23T01:01:26;15.70;;;11.93;;
55603;SDS011;41468;48.838;9.330;2023-02-23T01:03:53;16.27;;;11.87;;
55603;SDS011;41468;48.838;9.330;2023-02-23T01:06:20;18.40;;;12.80;;
55603;SDS011;41468;48.838;9.330;2023-02-23T01:08:58;19.63;;;13.20;;
55603;SDS011;41468;48.838;9.330;2023-02-23T01:11:30;16.87;;;12.07;;
55603;SDS011;41468;48.838;9.330;2023-02-23T01:13:57;15.93;;;12.23;;
55603;SDS011;41468;48.838;9.330;2023-02-23T01:16:27;16.60;;;11.77;;
55603;SDS011;41468;48.838;9.330;2023-02-23T01:18:56;15.97;;;11.83;;
55603;SDS011;41468;48.838;9.330;2023-02-23T01:21:29;18.90;;;11.80;;
55603;SDS011;41468;48.838;9.330;2023-02-23T01:23:57;15.63;;;11.87;;
55603;SDS011;41468;48.838;9.330;2023-02-23T01:26:25;17.33;;;11.77;;
55603;SDS011;41468;48.838;9.330;2023-02-23T01:28:55;16.43;;;11.43;;
55603;SDS011;41468;48.838;9.330;2023-02-23T01:31:23;14.17;;;11.40;;
55603;SDS011;41468;48.838;9.330;2023-02-23T01:33:54;15.53;;;11.40;;
55603;SDS011;41468;48.838;9.330;2023-02-23T01:36:25;14.93;;;10.63;;
55603;SDS011;41468;48.838;9.330;2023-02-23T01:38:54;14.37;;;11.17;;
55603;SDS011;41468;48.838;9.330;2023-02-23T01:41:22;14.33;;;11.77;;
55603;SDS011;41468;48.838;9.330;2023-02-23T01:43:53;16.47;;;12.00;;
55603;SDS011;41468;48.838;9.330;2023-02-23T01:46:26;15.40;;;11.23;;
55603;SDS011;41468;48.838;9.330;2023-02-23T01:48:55;15.77;;;11.73;;
55603;SDS011;41468;48.838;9.330;2023-02-23T01:51:24;15.73;;;11.77;;
55603;SDS011;41468;48.838;9.330;2023-02-23T01:53:57;14.93;;;12.07;;
55603;SDS011;41468;48.838;9.330;2023-02-23T01:56:28;17.53;;;13.33;;
55603;SDS011;41468;48.838;9.330;2023-02-23T01:58:58;18.00;;;13.03;;
55603;SDS011;41468;48.838;9.330;2023-02-23T02:01:30;16.07;;;11.37;;
55603;SDS011;41468;48.838;9.330;2023-02-23T02:04:01;16.17;;;12.20;;
55603;SDS011;41468;48.838;9.330;2023-02-23T02:06:32;15.03;;;12.03;;
55603;SDS011;41468;48.838;9.330;2023-02-23T02:09:06;15.60;;;12.23;;
55603;SDS011;41468;48.838;9.330;2023-02-23T02:11:35;16.87;;;11.50;;
55603;SDS011;41468;48.838;9.330;2023-02-23T02:14:04;17.50;;;11.33;;
55603;SDS011;41468;48.838;9.330;2023-02-23T02:16:41;17.23;;;11.50;;
55603;SDS011;41468;48.838;9.330;2023-02-23T02:24:29;15.37;;;11.77;;
55603;SDS011;41468;48.838;9.330;2023-02-23T02:27:20;14.80;;;11.33;;
55603;SDS011;41468;48.838;9.330;2023-02-23T02:32:35;15.40;;;10.57;;
55603;SDS011;41468;48.838;9.330;2023-02-23T02:40:57;17.67;;;12.60;;
55603;SDS011;41468;48.838;9.330;2023-02-23T02:46:17;20.57;;;12.27;;
55603;SDS011;41468;48.838;9.330;2023-02-23T02:48:56;20.90;;;13.03;;
55603;SDS011;41468;48.838;9.330;2023-02-23T02:51:38;15.90;;;12.50;;
55603;SDS011;41468;48.838;9.330;2023-02-23T02:54:24;21.03;;;13.53;;
55603;SDS011;41468;48.838;9.330;2023-02-23T02:56:57;17.80;;;12.10;;
55603;SDS011;41468;48.838;9.330;2023-02-23T02:59:27;20.37;;;12.83;;
55603;SDS011;41468;48.838;9.330;2023-02-23T03:02:13;20.07;;;13.37;;
55603;SDS011;41468;48.838;9.330;2023-02-23T03:05:00;16.30;;;12.83;;
55603;SDS011;41468;48.838;9.330;2023-02-23T03:11:14;18.23;;;14.30;;
55603;SDS011;41468;48.838;9.330;2023-02-23T03:17:23;20.47;;;14.40;;
55603;SDS011;41468;48.838;9.330;2023-02-23T03:29:36;16.00;;;13.50;;
55603;SDS011;41468;48.838;9.330;2023-02-23T03:32:45;16.70;;;12.87;;
55603;SDS011;41468;48.838;9.330;2023-02-23T03:38:40;19.93;;;13.00;;
55603;SDS011;41468;48.838;9.330;2023-02-23T03:41:28;17.77;;;13.20;;
55603;SDS011;41468;48.838;9.330;2023-02-23T03:44:18;18.33;;;13.20;;
55603;SDS011;41468;48.838;9.330;2023-02-23T03:47:09;17.23;;;13.30;;
55603;SDS011;41468;48.838;9.330;2023-02-23T03:49:56;16.93;;;12.47;;
55603;SDS011;41468;48.838;9.330;2023-02-23T03:52:45;17.23;;;12.27;;
55603;SDS011;41468;48.838;9.330;2023-02-23T03:55:36;17.57;;;12.23;;
55603;SDS011;41468;48.838;9.330;2023-02-23T03:58:27;19.93;;;12.57;;
55603;SDS011;41468;48.838;9.330;2023-02-23T04:01:21;15.00;;;12.13;;
55603;SDS011;41468;48.838;9.330;2023-02-23T04:04:09;19.77;;;12.53;;
55603;SDS011;41468;48.838;9.330;2023-02-23T04:06:56;17.30;;;12.60;;
55603;SDS011;41468;48.838;9.330;2023-02-23T04:09:43;17.20;;;12.50;;
55603;SDS011;41468;48.838;9.330;2023-02-23T04:15:35;23.83;;;12.83;;
55603;SDS011;41468;48.838;9.330;2023-02-23T04:18:05;16.03;;;11.87;;
55603;SDS011;41468;48.838;9.330;2023-02-23T04:20:33;19.53;;;12.93;;
55603;SDS011;41468;48.838;9.330;2023-02-23T04:23:00;17.40;;;12.47;;
55603;SDS011;41468;48.838;9.330;2023-02-23T04:25:27;19.27;;;13.27;;
55603;SDS011;41468;48.838;9.330;2023-02-23T04:28:01;20.73;;;12.90;;
55603;SDS011;41468;48.838;9.330;2023-02-23T04:30:28;20.30;;;13.00;;
55603;SDS011;41468;48.838;9.330;2023-02-23T04:32:55;19.27;;;15.20;;
55603;SDS011;41468;48.838;9.330;2023-02-23T04:35:24;17.23;;;13.07;;
55603;SDS011;41468;48.838;9.330;2023-02-23T04:37:53;17.53;;;12.20;;
55603;SDS011;41468;48.838;9.330;2023-02-23T04:40:20;13.60;;;11.87;;
55603;SDS011;41468;48.838;9.330;2023-02-23T04:42:49;16.47;;;12.17;;
55603;SDS011;41468;48.838;9.330;2023-02-23T04:45:16;16.10;;;12.37;;
55603;SDS011;41468;48.838;9.330;2023-02-23T04:47:42;22.03;;;13.07;;
55603;SDS011;41468;48.838;9.330;2023-02-23T04:50:10;16.63;;;11.93;;
55603;SDS011;41468;48.838;9.330;2023-02-23T04:52:38;15.77;;;12.60;;
55603;SDS011;41468;48.838;9.330;2023-02-23T04:55:05;19.27;;;12.47;;
55603;SDS011;41468;48.838;9.330;2023-02-23T04:57:34;15.07;;;12.87;;
55603;SDS011;41468;48.838;9.330;2023-02-23T05:00:00;13.77;;;12.07;;
55603;SDS011;41468;48.838;9.330;2023-02-23T05:02:29;13.33;;;12.00;;
55603;SDS011;41468;48.838;9.330;2023-02-23T05:04:57;16.33;;;11.70;;
55603;SDS011;41468;48.838;9.330;2023-02-23T05:07:24;15.70;;;12.27;;
55603;SDS011;41468;48.838;9.330;2023-02-23T05:09:50;19.40;;;12.17;;
55603;SDS011;41468;48.838;9.330;2023-02-23T05:12:17;16.50;;;12.20;;
55603;SDS011;41468;48.838;9.330;2023-02-23T05:14:43;14.73;;;11.97;;
55603;SDS011;41468;48.838;9.330;2023-02-23T05:17:10;15.73;;;12.30;;
55603;SDS011;41468;48.838;9.330;2023-02-23T05:19:36;19.23;;;11.87;;
55603;SDS011;41468;48.838;9.330;2023-02-23T05:22:03;17.87;;;11.80;;
55603;SDS011;41468;48.838;9.330;2023-02-23T05:24:29;16.10;;;11.93;;
55603;SDS011;41468;48.838;9.330;2023-02-23T05:26:56;21.07;;;13.20;;
55603;SDS011;41468;48.838;9.330;2023-02-23T05:29:24;17.47;;;12.23;;
55603;SDS011;41468;48.838;9.330;2023-02-23T05:31:50;12.90;;;11.47;;
55603;SDS011;41468;48.838;9.330;2023-02-23T05:34:17;14.30;;;11.63;;
55603;SDS011;41468;48.838;9.330;2023-02-23T05:36:43;14.17;;;12.07;;
55603;SDS011;41468;48.838;9.330;2023-02-23T05:39:10;15.47;;;12.63;;
55603;SDS011;41468;48.838;9.330;2023-02-23T05:41:37;17.30;;;12.47;;
55603;SDS011;41468;48.838;9.330;2023-02-23T05:44:03;17.67;;;13.27;;
55603;SDS011;41468;48.838;9.330;2023-02-23T05:46:30;16.73;;;11.97;;
55603;SDS011;41468;48.838;9.330;2023-02-23T05:48:57;15.10;;;12.37;;
55603;SDS011;41468;48.838;9.330;2023-02-23T05:51:26;20.83;;;12.03;;
55603;SDS011;41468;48.838;9.330;2023-02-23T05:53:55;16.50;;;13.87;;
55603;SDS011;41468;48.838;9.330;2023-02-23T05:56:21;15.40;;;12.63;;
55603;SDS011;41468;48.838;9.330;2023-02-23T05:58:49;14.37;;;11.50;;
55603;SDS011;41468;48.838;9.330;2023-02-23T06:01:17;17.53;;;12.30;;
55603;SDS011;41468;48.838;9.330;2023-02-23T06:03:45;16.37;;;12.70;;
55603;SDS011;41468;48.838;9.330;2023-02-23T06:06:12;15.77;;;12.93;;
55603;SDS011;41468;48.838;9.330;2023-02-23T06:08:39;18.53;;;13.03;;
55603;SDS011;41468;48.838;9.330;2023-02-23T06:11:06;15.43;;;12.53;;
55603;SDS011;41468;48.838;9.330;2023-02-23T06:13:33;17.67;;;13.10;;
55603;SDS011;41468;48.838;9.330;2023-02-23T06:16:00;20.50;;;13.33;;
55603;SDS011;41468;48.838;9.330;2023-02-23T06:18:27;17.57;;;13.50;;
55603;SDS011;41468;48.838;9.330;2023-02-23T06:20:54;15.27;;;12.13;;
55603;SDS011;41468;48.838;9.330;2023-02-23T06:23:24;17.47;;;12.63;;
55603;SDS011;41468;48.838;9.330;2023-02-23T06:25:51;17.73;;;12.73;;
55603;SDS011;41468;48.838;9.330;2023-02-23T06:28:17;13.73;;;11.80;;
55603;SDS011;41468;48.838;9.330;2023-02-23T06:30:44;17.30;;;12.00;;
55603;SDS011;41468;48.838;9.330;2023-02-23T06:33:12;14.43;;;12.17;;
55603;SDS011;41468;48.838;9.330;2023-02-23T06:35:38;16.17;;;12.60;;
55603;SDS011;41468;48.838;9.330;2023-02-23T06:38:05;17.10;;;12.17;;
55603;SDS011;41468;48.838;9.330;2023-02-23T06:40:32;16.23;;;12.30;;
55603;SDS011;41468;48.838;9.330;2023-02-23T06:42:58;17.57;;;12.63;;
55603;SDS011;41468;48.838;9.330;2023-02-23T06:45:25;19.80;;;12.70;;
55603;SDS011;41468;48.838;9.330;2023-02-23T06:47:52;15.03;;;12.07;;
55603;SDS011;41468;48.838;9.330;2023-02-23T06:50:19;16.67;;;11.50;;
55603;SDS011;41468;48.838;9.330;2023-02-23T06:52:45;16.17;;;11.63;;
55603;SDS011;41468;48.838;9.330;2023-02-23T06:55:12;15.97;;;11.83;;
55603;SDS011;41468;48.838;9.330;2023-02-23T06:57:39;18.10;;;11.87;;
55603;SDS011;41468;48.838;9.330;2023-02-23T07:00:08;16.03;;;12.00;;
55603;SDS011;41468;48.838;9.330;2023-02-23T07:02:40;15.63;;;11.97;;
55603;SDS011;41468;48.838;9.330;2023-02-23T07:05:07;17.40;;;11.50;;
55603;SDS011;41468;48.838;9.330;2023-02-23T07:07:34;15.40;;;12.53;;
55603;SDS011;41468;48.838;9.330;2023-02-23T07:10:01;14.80;;;12.20;;
55603;SDS011;41468;48.838;9.330;2023-02-23T07:12:28;14.63;;;11.60;;
55603;SDS011;41468;48.838;9.330;2023-02-23T07:14:55;15.30;;;11.73;;
55603;SDS011;41468;48.838;9.330;2023-02-23T07:17:22;15.90;;;11.63;;
55603;SDS011;41468;48.838;9.330;2023-02-23T07:19:49;18.03;;;11.97;;
55603;SDS011;41468;48.838;9.330;2023-02-23T07:22:15;15.13;;;11.50;;
55603;SDS011;41468;48.838;9.330;2023-02-23T07:24:42;16.07;;;11.50;;
55603;SDS011;41468;48.838;9.330;2023-02-23T07:27:08;16.10;;;12.40;;
55603;SDS011;41468;48.838;9.330;2023-02-23T07:29:35;13.63;;;11.70;;
55603;SDS011;41468;48.838;9.330;2023-02-23T07:32:01;20.37;;;12.53;;
55603;SDS011;41468;48.838;9.330;2023-02-23T07:34:28;16.73;;;11.53;;
55603;SDS011;41468;48.838;9.330;2023-02-23T07:36:55;16.17;;;11.40;;
55603;SDS011;41468;48.838;9.330;2023-02-23T07:39:21;13.87;;;11.77;;
55603;SDS011;41468;48.838;9.330;2023-02-23T07:41:48;17.57;;;11.40;;
55603;SDS011;41468;48.838;9.330;2023-02-23T07:44:21;13.97;;;11.83;;
55603;SDS011;41468;48.838;9.330;2023-02-23T07:46:48;17.70;;;11.83;;
55603;SDS011;41468;48.838;9.330;2023-02-23T07:49:21;18.83;;;13.33;;
55603;SDS011;41468;48.838;9.330;2023-02-23T07:51:48;21.30;;;13.07;;
55603;SDS011;41468;48.838;9.330;2023-02-23T07:54:19;16.53;;;13.17;;
55603;SDS011;41468;48.838;9.330;2023-02-23T07:56:47;19.20;;;13.97;;
55603;SDS011;41468;48.838;9.330;2023-02-23T07:59:13;16.30;;;13.73;;
55603;SDS011;41468;48.838;9.330;2023-02-23T08:01:40;18.83;;;12.53;;
55603;SDS011;41468;48.838;9.330;2023-02-23T08:04:07;17.37;;;12.13;;
55603;SDS011;41468;48.838;9.330;2023-02-23T08:06:33;17.20;;;11.93;;
55603;SDS011;41468;48.838;9.330;2023-02-23T08:09:01;14.77;;;11.60;;
55603;SDS011;41468;48.838;9.330;2023-02-23T08:11:29;15.83;;;12.47;;
55603;SDS011;41468;48.838;9.330;2023-02-23T08:13:56;16.60;;;12.50;;
55603;SDS011;41468;48.838;9.330;2023-02-23T08:16:29;15.57;;;12.10;;
55603;SDS011;41468;48.838;9.330;2023-02-23T08:18:58;18.23;;;12.80;;
55603;SDS011;41468;48.838;9.330;2023-02-23T08:21:26;22.93;;;12.93;;
55603;SDS011;41468;48.838;9.330;2023-02-23T08:23:55;16.67;;;12.60;;
55603;SDS011;41468;48.838;9.330;2023-02-23T08:26:29;17.50;;;12.77;;
55603;SDS011;41468;48.838;9.330;2023-02-23T08:28:56;16.77;;;13.63;;
55603;SDS011;41468;48.838;9.330;2023-02-23T08:31:34;19.17;;;13.43;;
55603;SDS011;41468;48.838;9.330;2023-02-23T08:34:01;17.03;;;13.47;;
55603;SDS011;41468;48.838;9.330;2023-02-23T08:36:27;22.33;;;13.80;;
55603;SDS011;41468;48.838;9.330;2023-02-23T08:38:59;21.20;;;13.77;;
55603;SDS011;41468;48.838;9.330;2023-02-23T08:41:26;20.63;;;13.87;;
55603;SDS011;41468;48.838;9.330;2023-02-23T08:43:52;15.13;;;12.63;;
55603;SDS011;41468;48.838;9.330;2023-02-23T08:46:19;17.40;;;12.80;;
55603;SDS011;41468;48.838;9.330;2023-02-23T08:48:46;15.03;;;11.70;;
55603;SDS011;41468;48.838;9.330;2023-02-23T08:51:12;14.57;;;10.97;;
55603;SDS011;41468;48.838;9.330;2023-02-23T08:53:42;15.73;;;11.67;;
55603;SDS011;41468;48.838;9.330;2023-02-23T08:56:09;13.27;;;10.73;;
55603;SDS011;41468;48.838;9.330;2023-02-23T08:58:36;15.77;;;11.80;;
55603;SDS011;41468;48.838;9.330;2023-02-23T09:01:03;13.80;;;10.07;;
55603;SDS011;41468;48.838;9.330;2023-02-23T09:03:31;13.03;;;10.17;;
55603;SDS011;41468;48.838;9.330;2023-02-23T09:06:08;15.80;;;10.27;;
55603;SDS011;41468;48.838;9.330;2023-02-23T09:08:38;13.00;;;9.53;;
55603;SDS011;41468;48.838;9.330;2023-02-23T09:11:05;13.77;;;10.07;;
55603;SDS011;41468;48.838;9.330;2023-02-23T09:13:31;11.80;;;9.67;;
55603;SDS011;41468;48.838;9.330;2023-02-23T09:15:58;12.03;;;9.47;;
55603;SDS011;41468;48.838;9.330;2023-02-23T09:18:25;13.67;;;9.57;;
55603;SDS011;41468;48.838;9.330;2023-02-23T09:20:53;13.33;;;9.93;;
55603;SDS011;41468;48.838;9.330;2023-02-23T09:23:19;11.73;;;9.13;;
55603;SDS011;41468;48.838;9.330;2023-02-23T09:25:46;14.37;;;9.53;;
55603;SDS011;41468;48.838;9.330;2023-02-23T09:28:13;14.03;;;9.50;;
55603;SDS011;41468;48.838;9.330;2023-02-23T09:30:41;11.40;;;9.47;;
55603;SDS011;41468;48.838;9.330;2023-02-23T09:33:10;12.83;;;9.63;;
55603;SDS011;41468;48.838;9.330;2023-02-23T09:35:37;11.30;;;9.30;;
55603;SDS011;41468;48.838;9.330;2023-02-23T09:38:05;13.23;;;8.87;;
55603;SDS011;41468;48.838;9.330;2023-02-23T09:40:47;10.30;;;8.30;;
55603;SDS011;41468;48.838;9.330;2023-02-23T09:43:20;10.83;;;8.53;;
55603;SDS011;41468;48.838;9.330;2023-02-23T09:46:17;11.70;;;8.40;;
55603;SDS011;41468;48.838;9.330;2023-02-23T09:49:00;10.13;;;8.27;;
55603;SDS011;41468;48.838;9.330;2023-02-23T09:51:29;9.90;;;8.03;;
55603;SDS011;41468;48.838;9.330;2023-02-23T09:54:02;8.20;;;7.00;;
55603;SDS011;41468;48.838;9.330;2023-02-23T09:56:33;8.43;;;7.57;;
55603;SDS011;41468;48.838;9.330;2023-02-23T09:59:05;9.93;;;7.87;;
55603;SDS011;41468;48.838;9.330;2023-02-23T10:06:59;10.23;;;7.90;;
55603;SDS011;41468;48.838;9.330;2023-02-23T10:12:39;8.70;;;7.50;;
55603;SDS011;41468;48.838;9.330;2023-02-23T10:18:17;7.70;;;6.90;;
55603;SDS011;41468;48.838;9.330;2023-02-23T10:20:58;12.60;;;7.07;;
55603;SDS011;41468;48.838;9.330;2023-02-23T10:23:40;10.23;;;6.97;;
55603;SDS011;41468;48.838;9.330;2023-02-23T10:26:07;9.27;;;6.90;;
55603;SDS011;41468;48.838;9.330;2023-02-23T10:28:41;10.43;;;6.43;;
55603;SDS011;41468;48.838;9.330;2023-02-23T10:33:54;12.23;;;6.23;;
55603;SDS011;41468;48.838;9.330;2023-02-23T10:36:28;9.20;;;6.30;;
55603;SDS011;41468;48.838;9.330;2023-02-23T10:39:04;8.00;;;6.60;;
55603;SDS011;41468;48.838;9.330;2023-02-23T10:41:33;10.23;;;6.23;;
55603;SDS011;41468;48.838;9.330;2023-02-23T10:44:03;7.27;;;5.80;;
55603;SDS011;41468;48.838;9.330;2023-02-23T10:46:37;6.97;;;6.00;;
55603;SDS011;41468;48.838;9.330;2023-02-23T10:49:05;9.60;;;6.27;;
55603;SDS011;41468;48.838;9.330;2023-02-23T10:51:39;10.23;;;6.27;;
55603;SDS011;41468;48.838;9.330;2023-02-23T10:54:33;11.33;;;7.03;;
55603;SDS011;41468;48.838;9.330;2023-02-23T10:57:02;10.33;;;6.93;;
55603;SDS011;41468;48.838;9.330;2023-02-23T10:59:30;12.27;;;6.43;;
55603;SDS011;41468;48.838;9.330;2023-02-23T11:01:58;8.97;;;6.03;;
55603;SDS011;41468;48.838;9.330;2023-02-23T11:04:31;9.17;;;6.23;;
55603;SDS011;41468;48.838;9.330;2023-02-23T11:07:16;7.33;;;5.70;;
55603;SDS011;41468;48.838;9.330;2023-02-23T11:09:46;9.13;;;6.00;;
55603;SDS011;41468;48.838;9.330;2023-02-23T11:12:24;7.13;;;5.63;;
55603;SDS011;41468;48.838;9.330;2023-02-23T11:14:55;8.50;;;6.07;;
55603;SDS011;41468;48.838;9.330;2023-02-23T11:20:02;6.90;;;4.80;;
55603;SDS011;41468;48.838;9.330;2023-02-23T11:22:34;6.40;;;4.67;;
55603;SDS011;41468;48.838;9.330;2023-02-23T11:25:28;6.67;;;4.83;;
55603;SDS011;41468;48.838;9.330;2023-02-23T11:27:56;6.37;;;4.90;;
55603;SDS011;41468;48.838;9.330;2023-02-23T11:30:30;7.70;;;4.80;;
55603;SDS011;41468;48.838;9.330;2023-02-23T11:33:02;6.33;;;4.80;;
55603;SDS011;41468;48.838;9.330;2023-02-23T11:35:37;6.73;;;4.70;;
55603;SDS011;41468;48.838;9.330;2023-02-23T11:38:14;4.60;;;4.10;;
55603;SDS011;41468;48.838;9.330;2023-02-23T11:41:33;6.63;;;4.43;;
55603;SDS011;41468;48.838;9.330;2023-02-23T11:43:50;6.87;;;4.67;;
55603;SDS011;41468;48.838;9.330;2023-02-23T11:46:28;5.47;;;3.87;;
55603;SDS011;41468;48.838;9.330;2023-02-23T11:51:48;6.70;;;3.87;;
55603;SDS011;41468;48.838;9.330;2023-02-23T11:54:19;5.73;;;3.60;;
55603;SDS011;41468;48.838;9.330;2023-02-23T11:56:58;4.27;;;3.30;;
55603;SDS011;41468;48.838;9.330;2023-02-23T11:59:31;5.13;;;3.40;;
55603;SDS011;41468;48.838;9.330;2023-02-23T12:02:43;5.93;;;3.30;;
55603;SDS011;41468;48.838;9.330;2023-02-23T12:04:53;9.60;;;3.40;;
55603;SDS011;41468;48.838;9.330;2023-02-23T12:07:38;9.33;;;3.90;;
55603;SDS011;41468;48.838;9.330;2023-02-23T12:10:14;6.77;;;4.10;;
55603;SDS011;41468;48.838;9.330;2023-02-23T12:12:47;6.50;;;3.50;;
55603;SDS011;41468;48.838;9.330;2023-02-23T12:15:33;4.13;;;3.13;;
55603;SDS011;41468;48.838;9.330;2023-02-23T12:18:14;4.63;;;3.50;;
55603;SDS011;41468;48.838;9.330;2023-02-23T12:20:53;7.20;;;4.07;;
55603;SDS011;41468;48.838;9.330;2023-02-23T12:23:26;5.90;;;3.87;;
55603;SDS011;41468;48.838;9.330;2023-02-23T12:26:00;4.20;;;3.10;;
55603;SDS011;41468;48.838;9.330;2023-02-23T12:31:45;4.53;;;3.27;;
55603;SDS011;41468;48.838;9.330;2023-02-23T12:34:20;5.80;;;3.13;;
55603;SDS011;41468;48.838;9.330;2023-02-23T12:36:57;4.03;;;3.60;;
55603;SDS011;41468;48.838;9.330;2023-02-23T12:39:37;3.90;;;3.10;;
55603;SDS011;41468;48.838;9.330;2023-02-23T12:42:25;6.67;;;3.43;;
55603;SDS011;41468;48.838;9.330;2023-02-23T12:45:04;5.73;;;3.50;;
55603;SDS011;41468;48.838;9.330;2023-02-23T12:50:30;6.10;;;3.70;;
55603;SDS011;41468;48.838;9.330;2023-02-23T12:53:06;5.07;;;3.03;;
55603;SDS011;41468;48.838;9.330;2023-02-23T12:55:46;6.30;;;3.50;;
55603;SDS011;41468;48.838;9.330;2023-02-23T12:58:23;8.93;;;3.73;;
55603;SDS011;41468;48.838;9.330;2023-02-23T13:01:04;6.70;;;3.23;;
55603;SDS011;41468;48.838;9.330;2023-02-23T13:03:42;5.90;;;3.40;;
55603;SDS011;41468;48.838;9.330;2023-02-23T13:17:21;5.03;;;3.80;;
55603;SDS011;41468;48.838;9.330;2023-02-23T13:20:13;6.13;;;4.23;;
55603;SDS011;41468;48.838;9.330;2023-02-23T13:22:57;7.10;;;3.80;;
55603;SDS011;41468;48.838;9.330;2023-02-23T13:25:36;10.73;;;4.20;;
55603;SDS011;41468;48.838;9.330;2023-02-23T13:28:07;5.00;;;3.87;;
55603;SDS011;41468;48.838;9.330;2023-02-23T13:30:43;5.43;;;4.00;;
55603;SDS011;41468;48.838;9.330;2023-02-23T13:33:24;8.20;;;4.17;;
55603;SDS011;41468;48.838;9.330;2023-02-23T13:36:08;5.97;;;3.93;;
55603;SDS011;41468;48.838;9.330;2023-02-23T13:38:43;4.07;;;3.63;;
55603;SDS011;41468;48.838;9.330;2023-02-23T13:46:53;6.00;;;4.47;;
55603;SDS011;41468;48.838;9.330;2023-02-23T13:51:58;6.03;;;4.47;;
55603;SDS011;41468;48.838;9.330;2023-02-23T13:54:34;7.23;;;4.30;;
55603;SDS011;41468;48.838;9.330;2023-02-23T13:57:02;8.27;;;4.30;;
55603;SDS011;41468;48.838;9.330;2023-02-23T13:59:40;8.90;;;3.70;;
55603;SDS011;41468;48.838;9.330;2023-02-23T14:02:20;7.13;;;4.03;;
55603;SDS011;41468;48.838;9.330;2023-02-23T14:07:56;9.20;;;4.87;;
55603;SDS011;41468;48.838;9.330;2023-02-23T14:10:28;7.77;;;4.57;;
55603;SDS011;41468;48.838;9.330;2023-02-23T14:18:01;5.97;;;3.17;;
55603;SDS011;41468;48.838;9.330;2023-02-23T14:23:37;11.00;;;3.87;;
55603;SDS011;41468;48.838;9.330;2023-02-23T14:31:51;6.03;;;3.83;;
55603;SDS011;41468;48.838;9.330;2023-02-23T14:34:20;6.43;;;3.63;;
55603;SDS011;41468;48.838;9.330;2023-02-23T14:36:49;7.37;;;3.80;;
55603;SDS011;41468;48.838;9.330;2023-02-23T14:39:22;5.60;;;3.87;;
55603;SDS011;41468;48.838;9.330;2023-02-23T14:41:55;4.57;;;3.83;;
55603;SDS011;41468;48.838;9.330;2023-02-23T14:44:31;11.10;;;4.03;;
55603;SDS011;41468;48.838;9.330;2023-02-23T14:47:14;4.07;;;3.67;;
55603;SDS011;41468;48.838;9.330;2023-02-23T14:49:49;7.47;;;3.80;;
55603;SDS011;41468;48.838;9.330;2023-02-23T14:52:21;5.50;;;3.33;;
55603;SDS011;41468;48.838;9.330;2023-02-23T14:54:50;8.10;;;3.43;;
55603;SDS011;41468;48.838;9.330;2023-02-23T14:59:56;12.63;;;3.50;;
55603;SDS011;41468;48.838;9.330;2023-02-23T15:02:25;7.93;;;3.50;;
55603;SDS011;41468;48.838;9.330;2023-02-23T15:04:54;7.57;;;3.70;;
55603;SDS011;41468;48.838;9.330;2023-02-23T15:07:31;5.70;;;3.47;;
55603;SDS011;41468;48.838;9.330;2023-02-23T15:10:07;6.77;;;3.47;;
55603;SDS011;41468;48.838;9.330;2023-02-23T15:12:37;8.83;;;3.50;;
55603;SDS011;41468;48.838;9.330;2023-02-23T15:15:06;9.50;;;4.23;;
55603;SDS011;41468;48.838;9.330;2023-02-23T15:17:43;10.70;;;4.03;;
55603;SDS011;41468;48.838;9.330;2023-02-23T15:20:14;6.73;;;3.63;;
55603;SDS011;41468;48.838;9.330;2023-02-23T15:22:47;6.80;;;3.43;;
55603;SDS011;41468;48.838;9.330;2023-02-23T15:25:39;5.70;;;3.60;;
55603;SDS011;41468;48.838;9.330;2023-02-23T15:28:40;7.87;;;3.70;;
55603;SDS011;41468;48.838;9.330;2023-02-23T15:30:59;6.40;;;3.87;;
55603;SDS011;41468;48.838;9.330;2023-02-23T15:33:27;7.70;;;3.63;;
55603;SDS011;41468;48.838;9.330;2023-02-23T15:35:56;5.87;;;3.57;;
55603;SDS011;41468;48.838;9.330;2023-02-23T15:38:45;4.67;;;3.80;;
55603;SDS011;41468;48.838;9.330;2023-02-23T15:41:24;6.50;;;4.20;;
55603;SDS011;41468;48.838;9.330;2023-02-23T15:44:00;7.40;;;3.90;;
55603;SDS011;41468;48.838;9.330;2023-02-23T15:46:37;9.27;;;3.87;;
55603;SDS011;41468;48.838;9.330;2023-02-23T15:49:08;6.83;;;4.10;;
55603;SDS011;41468;48.838;9.330;2023-02-23T15:51:42;6.07;;;3.37;;
55603;SDS011;41468;48.838;9.330;2023-02-23T15:54:20;5.73;;;3.70;;
55603;SDS011;41468;48.838;9.330;2023-02-23T15:56:54;7.77;;;4.00;;
55603;SDS011;41468;48.838;9.330;2023-02-23T15:59:26;16.63;;;3.87;;
55603;SDS011;41468;48.838;9.330;2023-02-23T16:01:57;10.43;;;4.27;;
55603;SDS011;41468;48.838;9.330;2023-02-23T16:04:27;6.27;;;3.67;;
55603;SDS011;41468;48.838;9.330;2023-02-23T16:07:12;6.30;;;3.83;;
55603;SDS011;41468;48.838;9.330;2023-02-23T16:12:18;7.40;;;3.97;;
55603;SDS011;41468;48.838;9.330;2023-02-23T16:14:51;4.83;;;3.80;;
55603;SDS011;41468;48.838;9.330;2023-02-23T16:19:54;12.73;;;4.47;;
55603;SDS011;41468;48.838;9.330;2023-02-23T16:22:36;7.80;;;4.20;;
55603;SDS011;41468;48.838;9.330;2023-02-23T16:25:06;8.13;;;5.47;;
55603;SDS011;41468;48.838;9.330;2023-02-23T16:27:37;7.90;;;4.57;;
55603;SDS011;41468;48.838;9.330;2023-02-23T16:30:21;7.87;;;4.60;;
55603;SDS011;41468;48.838;9.330;2023-02-23T16:33:04;4.70;;;4.23;;
55603;SDS011;41468;48.838;9.330;2023-02-23T16:35:35;6.87;;;4.10;;
55603;SDS011;41468;48.838;9.330;2023-02-23T16:38:09;7.87;;;4.33;;
55603;SDS011;41468;48.838;9.330;2023-02-23T16:40:47;6.17;;;4.13;;
55603;SDS011;41468;48.838;9.330;2023-02-23T16:43:14;10.13;;;4.57;;
55603;SDS011;41468;48.838;9.330;2023-02-23T16:45:41;6.37;;;4.53;;
55603;SDS011;41468;48.838;9.330;2023-02-23T16:48:12;6.90;;;4.67;;
55603;SDS011;41468;48.838;9.330;2023-02-23T16:50:40;14.83;;;5.17;;